Time;durP1;ratioP1;P1;durP2;ratioP2;P2;SDS_P1;SDS_P2;PMS_P1;PMS_P2;Temp;Humidity;BMP_temperature;BMP_pressure;BME280_temperature;BME280_humidity;BME280_pressure;Samples;Min_cycle;Max_cycle;Signal;HPM_P1;HPM_P2
2023/02/22 00:00:26;;;;;;;;;;;;;;;6.53;76.55;97984.34;5065939;28;19932;-53
2023/02/22 00:02:58;;;;;;;;;;;;;;;6.46;76.66;97988.47;5059865;28;19937;-53
2023/02/22 00:05:27;;;;;;;;;;;;;;;6.37;76.78;97982.84;5059034;28;20385;-53
2023/02/22 00:07:56;;;;;;;;;;;;;;;6.18;77.94;97984.59;5066694;28;19932;-53
2023/02/22 00:10:27;;;;;;;;;;;;;;;6.27;77.79;97986.44;5070548;28;19956;-53
2023/02/22 00:12:57;;;;;;;;;;;;;;;6.41;77.17;97980.41;5073412;28;19924;-53
2023/02/22 00:15:27;;;;;;;;;;;;;;;6.18;77.26;97977.34;5070549;28;19928;-53
2023/02/22 00:17:55;;;;;;;;;;;;;;;6.32;76.81;97976.69;5067402;28;19943;-53
2023/02/22 00:23:17;;;;;;;;;;;;;;;6.30;76.83;97967.00;5061568;28;20386;-53
2023/02/22 00:25:46;;;;;;;;;;;;;;;6.16;76.89;97968.72;5066915;28;19925;-53
2023/02/22 00:28:15;;;;;;;;;;;;;;;5.98;77.18;97962.09;5065342;28;19928;-53
2023/02/22 00:30:43;;;;;;;;;;;;;;;6.22;76.89;97964.09;5097805;28;19924;-53
2023/02/22 00:33:14;;;;;;;;;;;;;;;6.19;76.64;97957.38;5071731;28;20397;-54
2023/02/22 00:35:44;;;;;;;;;;;;;;;6.07;76.45;97953.41;5069362;28;19936;-53
2023/02/22 00:38:38;;;;;;;;;;;;;;;6.15;76.42;97955.50;5073107;28;20002;-53
2023/02/22 00:41:06;;;;;;;;;;;;;;;6.20;75.78;97955.47;5069178;28;20410;-53
2023/02/22 00:43:36;;;;;;;;;;;;;;;5.79;77.44;97964.59;5068129;28;19953;-53
2023/02/22 00:46:04;;;;;;;;;;;;;;;5.90;77.83;97956.44;5067284;28;19978;-54
2023/02/22 00:48:32;;;;;;;;;;;;;;;5.83;78.12;97958.66;5070276;28;19932;-53
2023/02/22 00:51:00;;;;;;;;;;;;;;;5.93;77.80;97954.03;5072083;28;19932;-53
2023/02/22 00:53:29;;;;;;;;;;;;;;;5.94;77.79;97955.66;5068939;28;19990;-53
2023/02/22 00:55:57;;;;;;;;;;;;;;;6.05;77.35;97951.00;5063152;28;20027;-53
2023/02/22 00:58:27;;;;;;;;;;;;;;;6.06;77.34;97949.09;5069915;28;20269;-53
2023/02/22 01:00:59;;;;;;;;;;;;;;;6.02;77.31;97944.28;5067633;28;19925;-52
2023/02/22 01:03:26;;;;;;;;;;;;;;;5.70;78.46;97955.50;5062195;28;19934;-53
2023/02/22 01:05:56;;;;;;;;;;;;;;;5.89;78.06;97946.75;5056341;28;19925;-53
2023/02/22 01:08:24;;;;;;;;;;;;;;;5.94;77.61;97952.94;5062198;28;19931;-53
2023/02/22 01:10:52;;;;;;;;;;;;;;;5.68;78.55;97948.78;5064877;28;20001;-52
2023/02/22 01:13:22;;;;;;;;;;;;;;;5.72;78.64;97956.03;5065832;28;19933;-53
2023/02/22 01:15:52;;;;;;;;;;;;;;;5.90;77.93;97945.66;5058634;28;19932;-53
2023/02/22 01:18:22;;;;;;;;;;;;;;;5.86;77.71;97936.53;5069921;28;19925;-53
2023/02/22 01:20:50;;;;;;;;;;;;;;;5.85;77.89;97937.59;5063284;28;20378;-53
2023/02/22 01:23:18;;;;;;;;;;;;;;;5.78;77.66;97943.31;5068630;28;20381;-53
2023/02/22 01:25:46;;;;;;;;;;;;;;;5.85;77.47;97938.41;5065983;28;19936;-53
2023/02/22 01:28:14;;;;;;;;;;;;;;;5.52;78.85;97940.75;5068380;28;19931;-53
2023/02/22 01:30:42;;;;;;;;;;;;;;;5.70;78.23;97944.72;5063442;28;19925;-53
2023/02/22 01:33:11;;;;;;;;;;;;;;;5.83;77.53;97934.41;5065139;28;19943;-53
2023/02/22 01:35:41;;;;;;;;;;;;;;;5.79;77.28;97931.44;5070809;28;19935;-54
2023/02/22 01:38:10;;;;;;;;;;;;;;;5.74;77.86;97928.78;5065939;28;19928;-53
2023/02/22 01:40:41;;;;;;;;;;;;;;;5.68;77.79;97919.91;5068137;28;20388;-54
2023/02/22 01:43:15;;;;;;;;;;;;;;;5.76;77.28;97924.75;5092805;28;19957;-53
2023/02/22 01:45:53;;;;;;;;;;;;;;;5.81;76.86;97921.22;5054452;28;20391;-54
2023/02/22 01:48:24;;;;;;;;;;;;;;;5.77;76.70;97923.66;5100896;28;20007;-53
2023/02/22 01:50:54;;;;;;;;;;;;;;;5.72;76.80;97923.69;5065923;28;19929;-53
2023/02/22 01:53:23;;;;;;;;;;;;;;;5.64;76.99;97928.84;5060447;28;19925;-53
2023/02/22 01:55:51;;;;;;;;;;;;;;;5.66;77.28;97929.38;5066665;28;19924;-53
2023/02/22 01:58:19;;;;;;;;;;;;;;;5.68;76.91;97917.22;5070279;28;20581;-54
2023/02/22 02:00:47;;;;;;;;;;;;;;;5.73;76.73;97911.81;5055673;28;20305;-53
2023/02/22 02:03:17;;;;;;;;;;;;;;;5.77;76.63;97909.38;5068551;28;19931;-53
2023/02/22 02:05:45;;;;;;;;;;;;;;;5.70;76.68;97904.28;5058019;28;19932;-53
2023/02/22 02:08:18;;;;;;;;;;;;;;;5.75;76.38;97904.25;5100521;28;19932;-53
2023/02/22 02:10:46;;;;;;;;;;;;;;;5.71;76.06;97902.41;5060759;28;19951;-53
2023/02/22 02:13:14;;;;;;;;;;;;;;;5.67;76.39;97904.84;5063052;28;19925;-53
2023/02/22 02:15:43;;;;;;;;;;;;;;;5.67;76.38;97896.75;5079468;28;20467;-53
2023/02/22 02:21:15;;;;;;;;;;;;;;;5.69;76.28;97894.56;5068869;28;19928;-53
2023/02/22 02:23:51;;;;;;;;;;;;;;;5.63;76.53;97889.50;5058220;28;19924;-53
2023/02/22 02:26:27;;;;;;;;;;;;;;;5.62;76.43;97888.69;5103404;28;19925;-53
2023/02/22 02:29:04;;;;;;;;;;;;;;;5.63;76.54;97889.50;5065564;28;20385;-53
2023/02/22 02:31:49;;;;;;;;;;;;;;;5.57;76.59;97891.44;5061862;28;20339;-53
2023/02/22 02:34:19;;;;;;;;;;;;;;;5.52;76.42;97888.75;5097561;28;19931;-53
2023/02/22 02:36:47;;;;;;;;;;;;;;;5.31;77.12;97889.97;5064824;28;19932;-54
2023/02/22 02:39:20;;;;;;;;;;;;;;;5.06;78.22;97894.41;5082616;28;19925;-53
2023/02/22 02:41:50;;;;;;;;;;;;;;;5.21;78.38;97890.81;5067900;28;19928;-53
2023/02/22 02:44:21;;;;;;;;;;;;;;;5.24;78.17;97896.47;5071221;28;20338;-53
2023/02/22 02:46:55;;;;;;;;;;;;;;;5.34;77.59;97894.81;5064668;28;19976;-53
2023/02/22 02:49:47;;;;;;;;;;;;;;;5.18;78.30;97889.50;5063357;28;19925;-53
2023/02/22 02:52:15;;;;;;;;;;;;;;;4.95;79.78;97885.56;5066679;28;19925;-57
2023/02/22 02:54:44;;;;;;;;;;;;;;;5.14;79.07;97883.03;5061555;28;20355;-54
2023/02/22 02:57:14;;;;;;;;;;;;;;;5.23;78.99;97885.97;5068575;28;19928;-61
2023/02/22 02:59:43;;;;;;;;;;;;;;;5.19;78.89;97884.91;5069698;28;19924;-57
2023/02/22 03:02:35;;;;;;;;;;;;;;;4.93;79.74;97876.13;5063227;28;19972;-53
2023/02/22 03:05:34;;;;;;;;;;;;;;;5.29;78.72;97878.66;5071573;28;19925;-53
2023/02/22 03:08:06;;;;;;;;;;;;;;;5.29;78.47;97875.97;5057895;28;19970;-53
2023/02/22 03:10:40;;;;;;;;;;;;;;;5.35;78.34;97872.16;5058023;28;19974;-53
2023/02/22 03:13:10;;;;;;;;;;;;;;;5.37;77.96;97860.00;5055765;28;19925;-53
2023/02/22 03:15:42;;;;;;;;;;;;;;;5.26;77.78;97869.25;5051140;28;20273;-53
2023/02/22 03:18:16;;;;;;;;;;;;;;;5.25;78.00;97871.13;5085406;28;19933;-53
2023/02/22 03:20:46;;;;;;;;;;;;;;;5.34;77.42;97859.78;5057450;28;19925;-53
2023/02/22 03:23:17;;;;;;;;;;;;;;;5.35;77.57;97864.09;5063738;28;19928;-53
2023/02/22 03:25:46;;;;;;;;;;;;;;;5.33;77.58;97866.25;5063406;28;19928;-53
2023/02/22 03:28:15;;;;;;;;;;;;;;;5.12;78.01;97869.06;5069335;28;19924;-53
2023/02/22 03:30:46;;;;;;;;;;;;;;;4.94;78.59;97872.34;5061532;28;19932;-53
2023/02/22 03:33:19;;;;;;;;;;;;;;;4.96;78.79;97867.50;5062976;28;19961;-53
2023/02/22 03:38:43;;;;;;;;;;;;;;;4.99;78.46;97865.06;5096059;28;19928;-53
2023/02/22 03:41:13;;;;;;;;;;;;;;;5.01;78.02;97864.81;5062965;28;19938;-53
2023/02/22 03:43:44;;;;;;;;;;;;;;;4.87;78.47;97861.88;5067847;28;19939;-54
2023/02/22 03:46:15;;;;;;;;;;;;;;;4.87;78.56;97866.47;5090702;28;19924;-54
2023/02/22 03:48:46;;;;;;;;;;;;;;;4.88;77.79;97854.63;5066966;28;20396;-53
2023/02/22 03:51:15;;;;;;;;;;;;;;;4.92;77.44;97861.06;5061090;28;19925;-53
2023/02/22 03:53:49;;;;;;;;;;;;;;;4.34;78.53;97858.00;5099301;28;20370;-53
2023/02/22 03:56:22;;;;;;;;;;;;;;;4.10;79.57;97850.53;5061882;28;20304;-53
2023/02/22 03:58:50;;;;;;;;;;;;;;;4.05;78.79;97855.91;5049610;28;20207;-53
2023/02/22 04:02:09;;;;;;;;;;;;;;;4.27;78.92;97857.50;5048406;28;19947;-53
2023/02/22 04:04:40;;;;;;;;;;;;;;;4.42;78.19;97852.88;5074460;28;20392;-53
2023/02/22 04:07:10;;;;;;;;;;;;;;;4.47;77.21;97855.56;5053167;28;20002;-53
2023/02/22 04:09:39;;;;;;;;;;;;;;;4.47;77.16;97857.44;5094388;28;19932;-53
2023/02/22 04:12:07;;;;;;;;;;;;;;;4.55;76.99;97858.75;5062881;28;19924;-53
2023/02/22 04:17:43;;;;;;;;;;;;;;;4.68;75.65;97858.97;5092031;28;19928;-55
2023/02/22 04:20:14;;;;;;;;;;;;;;;4.45;76.15;97860.41;5052059;28;20344;-53
2023/02/22 04:22:49;;;;;;;;;;;;;;;3.76;78.86;97862.88;5051224;28;19951;-54
2023/02/22 04:25:18;;;;;;;;;;;;;;;3.89;78.51;97851.63;5093788;28;19924;-53
2023/02/22 04:27:47;;;;;;;;;;;;;;;3.74;79.31;97851.59;5057085;28;19932;-55
2023/02/22 04:30:19;;;;;;;;;;;;;;;3.73;79.25;97848.13;5060923;28;19925;-53
2023/02/22 04:32:48;;;;;;;;;;;;;;;3.80;78.96;97855.91;5066075;28;19924;-53
2023/02/22 04:35:20;;;;;;;;;;;;;;;3.71;78.94;97844.88;5053300;28;19931;-53
2023/02/22 04:37:49;;;;;;;;;;;;;;;3.91;78.92;97849.44;5094727;28;19931;-53
2023/02/22 04:40:18;;;;;;;;;;;;;;;4.05;78.02;97855.06;5068632;28;19964;-54
2023/02/22 04:42:47;;;;;;;;;;;;;;;4.14;77.76;97854.25;5071394;28;19925;-53
2023/02/22 04:45:18;;;;;;;;;;;;;;;4.12;78.03;97845.66;5087651;28;19924;-54
2023/02/22 04:47:46;;;;;;;;;;;;;;;4.22;78.35;97844.84;5071220;28;19991;-54
2023/02/22 04:50:17;;;;;;;;;;;;;;;4.26;78.07;97840.56;5070775;28;20374;-53
2023/02/22 04:52:46;;;;;;;;;;;;;;;4.23;78.25;97840.28;5071434;28;20626;-53
2023/02/22 04:55:16;;;;;;;;;;;;;;;4.26;77.89;97840.56;5065357;28;19939;-53
2023/02/22 04:57:45;;;;;;;;;;;;;;;4.31;77.58;97837.03;5067387;28;19925;-53
2023/02/22 05:00:16;;;;;;;;;;;;;;;4.35;77.45;97833.53;5097658;28;19924;-53
2023/02/22 05:02:45;;;;;;;;;;;;;;;4.28;77.59;97832.19;5095628;28;19936;-53
2023/02/22 05:05:13;;;;;;;;;;;;;;;4.11;78.27;97836.00;5060569;28;19928;-53
2023/02/22 05:07:43;;;;;;;;;;;;;;;4.22;78.49;97838.66;5062704;28;19925;-54
2023/02/22 05:10:11;;;;;;;;;;;;;;;4.24;77.84;97829.25;5067042;28;19942;-54
2023/02/22 05:12:40;;;;;;;;;;;;;;;4.22;77.71;97834.09;5066586;28;19937;-54
2023/02/22 05:15:09;;;;;;;;;;;;;;;4.24;77.39;97825.75;5055923;28;19928;-54
2023/02/22 05:17:37;;;;;;;;;;;;;;;4.16;77.61;97827.94;5063195;28;19924;-53
2023/02/22 05:20:07;;;;;;;;;;;;;;;4.20;76.91;97820.09;5063839;28;21349;-53
2023/02/22 05:22:36;;;;;;;;;;;;;;;4.22;77.07;97830.59;5067026;28;19967;-53
2023/02/22 05:25:04;;;;;;;;;;;;;;;4.14;76.80;97822.00;5065325;28;19925;-53
2023/02/22 05:27:32;;;;;;;;;;;;;;;4.01;77.11;97822.56;5068006;28;20396;-54
2023/02/22 05:30:01;;;;;;;;;;;;;;;4.18;76.57;97816.88;5065216;28;19924;-54
2023/02/22 05:32:29;;;;;;;;;;;;;;;4.26;76.16;97812.81;5058279;28;19984;-54
2023/02/22 05:34:58;;;;;;;;;;;;;;;4.23;76.27;97818.78;5064345;28;20012;-53
2023/02/22 05:37:26;;;;;;;;;;;;;;;4.16;76.58;97806.41;5069829;28;19931;-53
2023/02/22 05:40:19;;;;;;;;;;;;;;;4.02;77.26;97809.94;5065849;28;19925;-53
2023/02/22 05:42:47;;;;;;;;;;;;;;;3.71;78.39;97807.25;5063725;28;19924;-54
2023/02/22 05:45:43;;;;;;;;;;;;;;;3.71;78.06;97807.25;5060051;28;19931;-53
2023/02/22 05:48:12;;;;;;;;;;;;;;;3.70;78.63;97808.34;5067861;28;19925;-53
2023/02/22 05:50:40;;;;;;;;;;;;;;;3.60;78.63;97802.97;5066789;28;20007;-53
2023/02/22 05:53:08;;;;;;;;;;;;;;;3.40;79.40;97806.44;5061516;28;20010;-53
2023/02/22 05:58:30;;;;;;;;;;;;;;;3.98;77.27;97812.34;5059132;28;20394;-53
2023/02/22 06:01:05;;;;;;;;;;;;;;;3.92;77.26;97813.44;5057807;28;19932;-53
2023/02/22 06:03:37;;;;;;;;;;;;;;;3.68;77.50;97808.63;5064610;28;19924;-53
2023/02/22 06:06:05;;;;;;;;;;;;;;;3.87;77.54;97810.75;5059621;28;20305;-53
2023/02/22 06:08:36;;;;;;;;;;;;;;;3.92;77.05;97818.81;5057307;28;19935;-53
2023/02/22 06:11:04;;;;;;;;;;;;;;;3.83;77.30;97815.03;5062725;28;19928;-54
2023/02/22 06:13:32;;;;;;;;;;;;;;;3.62;77.67;97814.22;5067062;28;19932;-54
2023/02/22 06:19:44;;;;;;;;;;;;;;;3.77;78.09;97813.44;4917151;26;20302;-71
2023/02/22 06:22:17;;;;;;;;;;;;;;;3.91;77.17;97815.31;4928132;29;19933;-77
2023/02/22 06:24:45;;;;;;;;;;;;;;;3.88;76.79;97817.72;4946827;28;19941;-78
2023/02/22 06:27:14;;;;;;;;;;;;;;;3.99;76.27;97823.91;4934693;28;19931;-77
2023/02/22 06:29:44;;;;;;;;;;;;;;;4.13;75.52;97831.16;4933464;29;19927;-77
2023/02/22 06:32:12;;;;;;;;;;;;;;;4.15;75.49;97826.28;4933772;28;20374;-76
2023/02/22 06:34:40;;;;;;;;;;;;;;;4.07;75.78;97829.53;4951762;28;19941;-77
2023/02/22 06:37:10;;;;;;;;;;;;;;;3.89;76.40;97825.53;4966911;28;19927;-74
2023/02/22 06:39:38;;;;;;;;;;;;;;;3.82;76.06;97824.19;4949677;28;20392;-71
2023/02/22 06:42:07;;;;;;;;;;;;;;;3.63;76.88;97827.41;4950503;28;19927;-73
2023/02/22 06:44:34;;;;;;;;;;;;;;;3.51;77.24;97831.44;4936979;29;19926;-70
2023/02/22 06:47:03;;;;;;;;;;;;;;;3.56;77.92;97834.91;4931428;29;19927;-73
2023/02/22 06:49:33;;;;;;;;;;;;;;;3.81;77.37;97830.63;4941865;29;19934;-73
2023/02/22 06:52:01;;;;;;;;;;;;;;;3.65;77.89;97841.38;4955747;28;20392;-73
2023/02/22 06:54:30;;;;;;;;;;;;;;;3.85;77.34;97829.03;4940714;29;19927;-77
2023/02/22 06:56:58;;;;;;;;;;;;;;;3.77;76.99;97829.56;4956203;28;19930;-77
2023/02/22 06:59:26;;;;;;;;;;;;;;;3.75;76.83;97831.72;4953046;28;19926;-76
2023/02/22 07:01:54;;;;;;;;;;;;;;;4.10;76.10;97828.19;4950101;28;19930;-76
2023/02/22 07:04:23;;;;;;;;;;;;;;;4.21;75.46;97829.81;4957782;28;20325;-77
2023/02/22 07:06:50;;;;;;;;;;;;;;;4.35;74.96;97830.81;4946844;28;19930;-77
2023/02/22 07:09:19;;;;;;;;;;;;;;;4.43;74.93;97837.56;4934831;29;19930;-75
2023/02/22 07:12:12;;;;;;;;;;;;;;;4.17;75.08;97826.84;4952465;28;19931;-75
2023/02/22 07:15:05;;;;;;;;;;;;;;;4.22;75.29;97827.91;4944528;28;19941;-76
2023/02/22 07:17:34;;;;;;;;;;;;;;;4.37;74.91;97831.38;4938615;29;19927;-80
2023/02/22 07:20:02;;;;;;;;;;;;;;;4.15;75.93;97831.66;4969020;28;19927;-79
2023/02/22 07:22:31;;;;;;;;;;;;;;;4.30;75.13;97830.03;4953996;28;19941;-80
2023/02/22 07:25:00;;;;;;;;;;;;;;;4.42;75.13;97827.84;4972514;29;19960;-80
2023/02/22 07:27:28;;;;;;;;;;;;;;;4.49;75.00;97827.59;4932262;28;19941;-74
2023/02/22 07:29:56;;;;;;;;;;;;;;;4.60;74.43;97824.56;4931141;29;20457;-73
2023/02/22 07:32:23;;;;;;;;;;;;;;;4.61;73.99;97826.19;4919494;28;19926;-75
2023/02/22 07:34:53;;;;;;;;;;;;;;;4.60;74.93;97819.19;4952493;28;19970;-75
2023/02/22 07:37:21;;;;;;;;;;;;;;;4.55;74.35;97816.53;4953405;28;19926;-72
2023/02/22 07:39:50;;;;;;;;;;;;;;;4.64;74.32;97814.88;4932983;29;20386;-72
2023/02/22 07:42:18;;;;;;;;;;;;;;;4.36;74.92;97820.88;4952285;28;19930;-72
2023/02/22 07:44:46;;;;;;;;;;;;;;;4.29;76.20;97815.78;4938393;29;19962;-72
2023/02/22 07:47:14;;;;;;;;;;;;;;;4.50;75.72;97819.22;4951881;28;19953;-72
2023/02/22 07:49:46;;;;;;;;;;;;;;;4.25;76.61;97811.22;4949064;28;19926;-73
2023/02/22 07:52:16;;;;;;;;;;;;;;;4.33;76.37;97818.75;4951303;28;19934;-76
2023/02/22 07:54:46;;;;;;;;;;;;;;;4.69;75.55;97820.25;4936115;28;20397;-75
2023/02/22 07:57:15;;;;;;;;;;;;;;;4.76;75.84;97822.63;4927833;29;19989;-77
2023/02/22 07:59:45;;;;;;;;;;;;;;;4.58;75.92;97824.06;4952383;28;20052;-77
2023/02/22 08:02:14;;;;;;;;;;;;;;;4.84;76.03;97824.75;4930391;29;19934;-75
2023/02/22 08:04:43;;;;;;;;;;;;;;;5.16;74.86;97818.13;4934349;29;19981;-75
2023/02/22 08:07:11;;;;;;;;;;;;;;;5.47;74.30;97810.66;4948905;28;20017;-75
2023/02/22 08:10:06;;;;;;;;;;;;;;;5.47;73.55;97810.66;4937466;29;19933;-75
2023/02/22 08:12:36;;;;;;;;;;;;;;;5.44;75.00;97805.84;4951980;28;20273;-72
2023/02/22 08:15:05;;;;;;;;;;;;;;;5.83;73.49;97811.19;4933819;28;19934;-71
2023/02/22 08:17:37;;;;;;;;;;;;;;;5.98;72.84;97807.59;4949123;28;20472;-78
2023/02/22 08:20:07;;;;;;;;;;;;;;;6.16;72.42;97809.56;4952952;28;19962;-76
2023/02/22 08:22:36;;;;;;;;;;;;;;;6.26;72.37;97806.75;4951285;28;19941;-76
2023/02/22 08:25:05;;;;;;;;;;;;;;;6.36;72.17;97803.16;4958754;28;19927;-74
2023/02/22 08:27:33;;;;;;;;;;;;;;;6.48;72.06;97810.84;4964096;28;20369;-74
2023/02/22 08:30:03;;;;;;;;;;;;;;;6.40;72.05;97806.91;4939963;29;19927;-71
2023/02/22 08:32:32;;;;;;;;;;;;;;;6.44;72.30;97799.00;4940085;29;19930;-75
2023/02/22 08:35:01;;;;;;;;;;;;;;;6.30;73.61;97802.41;4935736;29;20385;-74
2023/02/22 08:37:29;;;;;;;;;;;;;;;6.35;73.73;97798.06;4956737;28;19931;-79
2023/02/22 08:39:57;;;;;;;;;;;;;;;6.65;72.83;97803.09;4958190;28;19990;-79
2023/02/22 08:42:25;;;;;;;;;;;;;;;6.70;73.15;97800.31;4950959;28;20413;-75
2023/02/22 08:44:54;;;;;;;;;;;;;;;6.70;73.72;97800.31;4950256;28;20385;-75
2023/02/22 08:47:23;;;;;;;;;;;;;;;6.83;73.50;97804.25;4951229;29;19960;-70
2023/02/22 08:49:51;;;;;;;;;;;;;;;7.04;73.08;97799.38;4948159;28;19961;-70
2023/02/22 08:52:20;;;;;;;;;;;;;;;7.21;72.46;97799.69;4946171;28;19931;-73
2023/02/22 08:54:48;;;;;;;;;;;;;;;7.32;72.06;97795.72;4951639;28;20382;-71
2023/02/22 08:57:17;;;;;;;;;;;;;;;7.46;71.94;97789.59;4949598;28;19930;-74
2023/02/22 08:59:49;;;;;;;;;;;;;;;7.63;71.95;97795.28;4951191;28;19965;-74
2023/02/22 09:02:19;;;;;;;;;;;;;;;7.76;72.27;97799.91;4941591;28;20346;-71
2023/02/22 09:04:49;;;;;;;;;;;;;;;7.65;73.01;97794.97;4951745;28;20005;-71
2023/02/22 09:07:17;;;;;;;;;;;;;;;7.79;72.90;97796.63;4955731;28;19934;-72
2023/02/22 09:09:47;;;;;;;;;;;;;;;8.00;71.92;97791.69;4953016;28;19953;-74
2023/02/22 09:12:15;;;;;;;;;;;;;;;8.20;71.70;97793.19;4942988;28;19978;-72
2023/02/22 09:14:48;;;;;;;;;;;;;;;8.33;70.94;97795.13;4950829;28;20399;-71
2023/02/22 09:17:42;;;;;;;;;;;;;;;8.53;70.79;97795.91;4947659;28;19953;-70
2023/02/22 09:20:13;;;;;;;;;;;;;;;8.70;70.99;97801.50;4906228;29;19927;-72
2023/02/22 09:22:42;;;;;;;;;;;;;;;8.79;71.10;97794.28;4911729;29;20397;-74
2023/02/22 09:25:11;;;;;;;;;;;;;;;8.95;69.95;97794.78;4911945;29;20385;-74
2023/02/22 09:27:44;;;;;;;;;;;;;;;8.96;70.27;97790.16;4910906;29;20287;-74
2023/02/22 09:30:26;;;;;;;;;;;;;;;9.08;70.30;97798.56;4915792;29;19927;-74
2023/02/22 09:32:56;;;;;;;;;;;;;;;9.08;70.43;97788.50;4916355;29;19938;-70
2023/02/22 09:35:27;;;;;;;;;;;;;;;9.11;70.50;97790.63;4911475;29;20302;-69
2023/02/22 09:37:55;;;;;;;;;;;;;;;9.25;70.34;97787.06;4903785;29;20406;-69
2023/02/22 09:40:28;;;;;;;;;;;;;;;9.43;69.54;97775.28;4902407;29;19981;-69
2023/02/22 09:43:01;;;;;;;;;;;;;;;9.56;70.02;97779.03;4908294;29;19942;-74
2023/02/22 09:45:31;;;;;;;;;;;;;;;9.74;69.11;97783.47;4903208;29;19974;-74
2023/02/22 09:48:01;;;;;;;;;;;;;;;9.81;68.21;97781.13;4912769;29;19930;-75
2023/02/22 09:50:47;;;;;;;;;;;;;;;9.82;68.61;97787.38;4927745;29;19959;-75
2023/02/22 09:53:20;;;;;;;;;;;;;;;9.61;70.15;97782.44;4915147;29;20318;-72
2023/02/22 09:55:49;;;;;;;;;;;;;;;9.65;70.20;97779.91;4903274;29;19957;-72
2023/02/22 09:58:19;;;;;;;;;;;;;;;9.66;69.99;97768.75;4927720;23;19969;-51
2023/02/22 10:00:52;;;;;;;;;;;;;;;9.71;69.90;97771.31;4913441;28;20284;-54
2023/02/22 10:03:22;;;;;;;;;;;;;;;9.58;70.57;97765.97;4928642;29;19935;-54
2023/02/22 10:05:56;;;;;;;;;;;;;;;9.67;70.69;97770.34;4934362;29;19935;-54
2023/02/22 10:08:24;;;;;;;;;;;;;;;9.92;70.09;97766.19;4930094;29;20022;-54
2023/02/22 10:10:55;;;;;;;;;;;;;;;9.92;69.51;97765.41;4934797;29;19922;-53
2023/02/22 10:13:26;;;;;;;;;;;;;;;9.94;69.68;97763.16;4934389;28;19934;-54
2023/02/22 10:15:57;;;;;;;;;;;;;;;9.86;70.24;97762.00;4921398;28;19971;-53
2023/02/22 10:19:25;;;;;;;;;;;;;;;10.00;69.93;97761.13;4913209;29;19984;-54
2023/02/22 10:21:59;;;;;;;;;;;;;;;10.17;69.50;97763.91;4913972;29;19951;-54
2023/02/22 10:24:36;;;;;;;;;;;;;;;10.28;69.28;97759.88;4909888;29;19963;-53
2023/02/22 10:29:59;;;;;;;;;;;;;;;10.88;66.98;97748.41;4912044;29;19935;-53
2023/02/22 10:32:29;;;;;;;;;;;;;;;11.11;66.46;97746.34;4929361;29;19923;-54
2023/02/22 10:37:52;;;;;;;;;;;;;;;11.14;66.78;97744.91;4934400;28;19946;-55
2023/02/22 10:40:46;;;;;;;;;;;;;;;11.30;65.63;97742.53;4934984;28;19923;-54
2023/02/22 10:43:14;;;;;;;;;;;;;;;11.28;65.58;97740.91;4935211;29;20310;-52
2023/02/22 10:45:43;;;;;;;;;;;;;;;11.34;65.49;97743.47;4927682;29;19930;-53
2023/02/22 10:48:12;;;;;;;;;;;;;;;11.53;65.04;97742.03;4936129;28;19929;-64
2023/02/22 10:50:41;;;;;;;;;;;;;;;11.54;64.49;97738.19;4934043;29;19978;-55
2023/02/22 10:53:11;;;;;;;;;;;;;;;11.83;64.12;97744.91;4934096;29;19922;-53
2023/02/22 10:56:04;;;;;;;;;;;;;;;11.96;63.51;97746.63;4934448;28;19957;-55
2023/02/22 10:58:39;;;;;;;;;;;;;;;12.22;62.97;97740.31;4930098;29;19970;-55
2023/02/22 11:01:17;;;;;;;;;;;;;;;12.39;62.77;97734.78;4924943;29;20443;-53
2023/02/22 11:03:56;;;;;;;;;;;;;;;12.46;62.45;97735.06;4928743;29;19958;-54
2023/02/22 11:06:26;;;;;;;;;;;;;;;12.56;61.71;97733.91;4928731;29;19927;-53
2023/02/22 11:09:09;;;;;;;;;;;;;;;12.63;61.79;97730.69;4927440;29;19927;-52
2023/02/22 11:11:38;;;;;;;;;;;;;;;12.76;61.01;97729.63;4930975;29;19922;-52
2023/02/22 11:14:31;;;;;;;;;;;;;;;12.80;60.76;97722.41;4930348;29;19929;-53
2023/02/22 11:17:49;;;;;;;;;;;;;;;12.84;61.05;97721.41;4916333;28;19945;-52
2023/02/22 11:20:24;;;;;;;;;;;;;;;12.82;61.23;97720.13;4912162;29;19971;-52
2023/02/22 11:22:53;;;;;;;;;;;;;;;12.89;61.11;97708.69;4915092;29;20413;-51
2023/02/22 11:25:24;;;;;;;;;;;;;;;13.04;60.80;97711.63;4913833;29;20254;-52
2023/02/22 11:27:53;;;;;;;;;;;;;;;12.97;60.59;97714.09;4920657;29;19934;-54
2023/02/22 11:30:27;;;;;;;;;;;;;;;13.01;60.34;97701.41;4909733;28;19923;-52
2023/02/22 11:32:58;;;;;;;;;;;;;;;13.15;59.84;97692.94;4935081;29;19927;-52
2023/02/22 11:35:34;;;;;;;;;;;;;;;13.17;59.88;97692.63;4934610;29;19938;-52
2023/02/22 11:38:15;;;;;;;;;;;;;;;13.05;60.36;97693.38;4932654;29;19923;-52
2023/02/22 11:40:44;;;;;;;;;;;;;;;13.11;59.92;97681.13;4933956;29;19923;-52
2023/02/22 11:43:15;;;;;;;;;;;;;;;12.89;60.62;97682.25;4934071;29;19927;-52
2023/02/22 11:45:59;;;;;;;;;;;;;;;12.80;61.17;97684.25;4926950;29;19922;-52
2023/02/22 11:48:30;;;;;;;;;;;;;;;12.89;61.04;97679.53;4924027;29;20013;-51
2023/02/22 11:51:02;;;;;;;;;;;;;;;13.01;60.02;97667.91;4931112;29;19927;-52
2023/02/22 11:53:32;;;;;;;;;;;;;;;13.01;60.96;97668.69;4929961;29;19922;-52
2023/02/22 11:56:06;;;;;;;;;;;;;;;13.16;60.26;97666.50;4938020;29;20018;-52
2023/02/22 11:58:36;;;;;;;;;;;;;;;13.31;59.93;97671.34;4938031;29;20051;-52
2023/02/22 12:01:05;;;;;;;;;;;;;;;13.47;59.04;97661.41;4950648;28;20361;-52
2023/02/22 12:03:40;;;;;;;;;;;;;;;13.52;58.82;97661.19;4933911;29;19934;-52
2023/02/22 12:06:17;;;;;;;;;;;;;;;13.51;59.12;97656.06;4953209;28;19926;-52
2023/02/22 12:08:49;;;;;;;;;;;;;;;13.57;58.77;97647.34;4953214;28;19922;-51
2023/02/22 12:11:25;;;;;;;;;;;;;;;13.68;58.55;97650.44;4955573;28;19929;-52
2023/02/22 12:16:56;;;;;;;;;;;;;;;13.96;57.96;97639.69;4935155;28;20013;-54
2023/02/22 12:19:26;;;;;;;;;;;;;;;14.04;57.99;97632.53;4936664;29;20018;-57
2023/02/22 12:21:56;;;;;;;;;;;;;;;14.14;57.66;97627.41;4932433;29;19933;-52
2023/02/22 12:24:26;;;;;;;;;;;;;;;14.10;56.80;97629.22;4929722;29;19958;-52
2023/02/22 12:26:57;;;;;;;;;;;;;;;13.99;57.20;97622.59;4936856;29;20424;-51
2023/02/22 12:29:28;;;;;;;;;;;;;;;13.79;57.71;97629.75;4919872;29;19934;-52
2023/02/22 12:31:57;;;;;;;;;;;;;;;13.84;57.64;97624.06;4931225;28;20330;-52
2023/02/22 12:34:30;;;;;;;;;;;;;;;13.96;57.86;97625.25;4949923;28;19945;-51
2023/02/22 12:37:01;;;;;;;;;;;;;;;13.99;57.53;97619.88;4952549;28;19927;-52
2023/02/22 12:39:41;;;;;;;;;;;;;;;14.13;57.10;97617.63;4950997;28;19935;-52
2023/02/22 12:42:45;;;;;;;;;;;;;;;14.24;56.37;97615.22;4961548;28;19922;-52
2023/02/22 12:45:17;;;;;;;;;;;;;;;14.33;55.69;97615.13;4945648;28;19922;-52
2023/02/22 12:47:46;;;;;;;;;;;;;;;14.34;56.20;97612.03;4952644;28;19922;-53
2023/02/22 12:50:18;;;;;;;;;;;;;;;14.46;55.33;97605.75;4956750;29;19937;-55
2023/02/22 12:52:46;;;;;;;;;;;;;;;14.40;55.86;97607.94;4955212;28;19922;-61
2023/02/22 12:55:15;;;;;;;;;;;;;;;14.22;55.83;97611.22;4952584;28;19930;-52
2023/02/22 12:57:50;;;;;;;;;;;;;;;14.20;56.51;97608.06;4950277;28;19934;-52
2023/02/22 13:00:25;;;;;;;;;;;;;;;14.15;56.49;97604.41;4932841;29;19923;-51
2023/02/22 13:02:57;;;;;;;;;;;;;;;14.25;56.22;97600.41;4933900;29;19923;-51
2023/02/22 13:05:25;;;;;;;;;;;;;;;14.45;55.45;97604.16;4954598;28;19931;-53
2023/02/22 13:07:57;;;;;;;;;;;;;;;14.44;55.92;97599.84;4952759;29;19922;-55
2023/02/22 13:10:46;;;;;;;;;;;;;;;14.46;55.65;97594.81;4946221;28;19974;-52
2023/02/22 13:13:16;;;;;;;;;;;;;;;14.60;55.05;97589.81;4950133;28;19922;-54
2023/02/22 13:22:03;;;;;;;;;;;;;;;14.77;54.95;97572.34;4947070;28;19922;-52
2023/02/22 13:24:32;;;;;;;;;;;;;;;14.70;54.22;97576.78;4932390;29;20017;-53
2023/02/22 13:27:00;;;;;;;;;;;;;;;14.91;53.66;97577.41;4950368;28;19926;-52
2023/02/22 13:29:29;;;;;;;;;;;;;;;14.97;53.38;97581.50;4952871;28;19929;-52
2023/02/22 13:32:08;;;;;;;;;;;;;;;15.03;53.41;97574.63;4947018;29;19923;-52
2023/02/22 13:35:00;;;;;;;;;;;;;;;14.98;53.21;97572.16;4953210;28;20309;-52
2023/02/22 13:37:46;;;;;;;;;;;;;;;14.95;53.29;97570.09;4937815;29;19926;-52
2023/02/22 13:40:29;;;;;;;;;;;;;;;14.97;54.23;97565.09;4934641;29;19929;-52
2023/02/22 13:43:10;;;;;;;;;;;;;;;14.98;53.72;97572.16;4941168;29;19945;-52
2023/02/22 13:45:45;;;;;;;;;;;;;;;15.00;53.42;97567.13;4940459;28;19931;-52
2023/02/22 13:48:40;;;;;;;;;;;;;;;15.03;52.85;97566.44;4950579;28;20538;-53
2023/02/22 13:51:28;;;;;;;;;;;;;;;15.00;53.04;97566.31;4951636;28;19929;-53
2023/02/22 13:53:58;;;;;;;;;;;;;;;15.02;52.82;97567.59;4956855;28;19957;-53